G Force — MNHN9 — position and weather

sailwx.info

Track history (hours):
 
Tides and Currents Weather Stations Pressure Air Temp Water Temp Dewpoint Dewpoint Depression Visibility Wind Speed Wind Dir Waves Ship Positions

G Force

Last reported at 2016-Oct-01 04:33 UTC. Time now 2016-Oct-01 12:08 UTC.
Position N 39°33' E 002°38'.

Length 37 m; draft 2 m.

Type: Pleasure craft. MMSI: 235011330.

Date/timePositionNaut miles runAvg speedWind from/ knotsBaromVisibWave heightAir tempDewpointWater temp
2016-Oct-01 04:33N 39°33' E 002°38'0 0.0
2016-Oct-01 03:33N 39°33' E 002°38'0 0.0
2016-Oct-01 00:33N 39°33' E 002°38'0 0.0
2016-Sep-30 22:33N 39°33' E 002°38'0 0.0
2016-Sep-30 20:33N 39°33' E 002°38'0 0.0
2016-Sep-30 17:33N 39°33' E 002°38'0 0.0
2016-Sep-30 16:33N 39°33' E 002°38'0 0.0
2016-Sep-30 14:33N 39°33' E 002°38'0 0.0
2016-Sep-30 13:33N 39°33' E 002°38'0 0.0
2016-Sep-30 10:33N 39°33' E 002°38'0 0.0
2016-Sep-30 08:33N 39°33' E 002°38'0 0.0
2016-Sep-30 06:33N 39°33' E 002°38'0 0.0
2016-Sep-30 03:33N 39°33' E 002°38'0 0.0
2016-Sep-30 02:33N 39°33' E 002°38'0 0.0
2016-Sep-29 23:33N 39°33' E 002°38'0 0.0
2016-Sep-29 21:33N 39°33' E 002°38'0 0.0
2016-Sep-29 20:33N 39°33' E 002°38'0 0.0
2016-Sep-29 19:33N 39°33' E 002°38'0 0.0
2016-Sep-29 16:33N 39°33' E 002°38'0 0.0
2016-Sep-29 15:33N 39°33' E 002°38'0 0.0
2016-Sep-29 14:33N 39°33' E 002°38'0 0.0
2016-Sep-29 13:33N 39°33' E 002°38'0 0.0
2016-Sep-29 08:33N 39°33' E 002°38'0 0.0
2016-Sep-29 07:33N 39°33' E 002°38'0 0.0
2016-Sep-29 00:33N 39°33' E 002°38'0 0.0
2016-Sep-28 21:33N 39°33' E 002°38'0 0.0
2016-Sep-28 19:33N 39°33' E 002°38'0 0.0
2016-Sep-28 16:33N 39°33' E 002°38'0 0.0
2016-Sep-28 15:33N 39°33' E 002°38'4 1.2
2016-Sep-28 12:33N 39°32' E 002°33'0 0.0
2016-Sep-28 08:33N 39°32' E 002°34'4 0.7
2016-Sep-28 03:33N 39°33' E 002°38'0 0.0
2016-Sep-28 02:33N 39°33' E 002°38'0 0.0
2016-Sep-28 01:33N 39°33' E 002°38'0 0.0
2016-Sep-27 23:33N 39°33' E 002°38'0 0.0
2016-Sep-27 19:33N 39°33' E 002°38'9 1.9
2016-Sep-27 14:33N 39°28' E 002°28'23 1.6
2016-Sep-27 00:33N 39°48' E 002°42'0 0.0
2016-Sep-26 20:33N 39°48' E 002°42'0 0.0
2016-Sep-26 19:33N 39°48' E 002°42'16 4.1
2016-Sep-26 15:33N 39°38' E 002°24'6 1.5
2016-Sep-26 11:33N 39°32' E 002°24'59 2.4
2016-Sep-25 10:29N 38°53' E 001°27'1 0.0
2016-Sep-24 10:04N 38°54' E 001°27'612.7
2016-Sep-24 09:33N 38°57' E 001°34'6110.2
2016-Sep-24 03:33N 39°34' E 002°38'0 0.0
2016-Sep-24 02:33N 39°34' E 002°38'0 0.0
2016-Sep-24 01:33N 39°34' E 002°38'0 0.0
2016-Sep-24 00:33N 39°34' E 002°38'0 0.0
2016-Sep-23 19:33N 39°34' E 002°38'0 0.0
2016-Sep-23 17:33N 39°34' E 002°38'0 0.0
2016-Sep-23 16:33N 39°34' E 002°38'0 0.0
2016-Sep-23 15:33N 39°34' E 002°38'0 0.0
2016-Sep-23 13:33N 39°34' E 002°38'0 0.0
2016-Sep-23 09:33N 39°34' E 002°38'0 0.0
2016-Sep-23 06:33N 39°34' E 002°38'0 0.0
2016-Sep-23 04:33N 39°34' E 002°38'0 0.0
2016-Sep-23 03:33N 39°34' E 002°38'0 0.0
2016-Sep-23 02:33N 39°34' E 002°38'0 0.0
2016-Sep-23 01:33N 39°34' E 002°38'0 0.0
2016-Sep-23 00:33N 39°34' E 002°38'0 0.0
2016-Sep-22 23:33N 39°34' E 002°38'0 0.0
2016-Sep-22 20:33N 39°34' E 002°38'0 0.0
2016-Sep-22 12:33N 39°34' E 002°38'0 0.0
2016-Sep-22 04:33N 39°34' E 002°38'0 0.0
2016-Sep-22 03:33N 39°34' E 002°38'0 0.0
2016-Sep-22 00:33N 39°34' E 002°38'0 0.0
2016-Sep-21 23:33N 39°34' E 002°38'0 0.0
2016-Sep-21 22:33N 39°34' E 002°38'0 0.0
2016-Sep-21 19:33N 39°34' E 002°38'0 0.0
2016-Sep-21 16:33N 39°34' E 002°38'0 0.0
2016-Sep-21 09:33N 39°34' E 002°38'0 0.0
2016-Sep-21 08:33N 39°34' E 002°38'  
Track history (hours):
 
Tides and Currents Weather Stations Pressure Air Temp Water Temp Dewpoint Dewpoint Depression Visibility Wind Speed Wind Dir Waves Ship Positions

G Force

Last reported at 2016-Oct-01 04:33 UTC. Time now 2016-Oct-01 12:08 UTC.
Position N 39°33' E 002°38'.

Length 37 m; draft 2 m.

Type: Pleasure craft. MMSI: 235011330.

Date/timePositionNaut miles runAvg speedWind from/ knotsBaromVisibWave heightAir tempDewpointWater temp
2016-Oct-01 04:33N 39°33' E 002°38'0 0.0
2016-Oct-01 03:33N 39°33' E 002°38'0 0.0
2016-Oct-01 00:33N 39°33' E 002°38'0 0.0
2016-Sep-30 22:33N 39°33' E 002°38'0 0.0
2016-Sep-30 20:33N 39°33' E 002°38'0 0.0
2016-Sep-30 17:33N 39°33' E 002°38'0 0.0
2016-Sep-30 16:33N 39°33' E 002°38'0 0.0
2016-Sep-30 14:33N 39°33' E 002°38'0 0.0
2016-Sep-30 13:33N 39°33' E 002°38'0 0.0
2016-Sep-30 10:33N 39°33' E 002°38'0 0.0
2016-Sep-30 08:33N 39°33' E 002°38'0 0.0
2016-Sep-30 06:33N 39°33' E 002°38'0 0.0
2016-Sep-30 03:33N 39°33' E 002°38'0 0.0
2016-Sep-30 02:33N 39°33' E 002°38'0 0.0
2016-Sep-29 23:33N 39°33' E 002°38'0 0.0
2016-Sep-29 21:33N 39°33' E 002°38'0 0.0
2016-Sep-29 20:33N 39°33' E 002°38'0 0.0
2016-Sep-29 19:33N 39°33' E 002°38'0 0.0
2016-Sep-29 16:33N 39°33' E 002°38'0 0.0
2016-Sep-29 15:33N 39°33' E 002°38'0 0.0
2016-Sep-29 14:33N 39°33' E 002°38'0 0.0
2016-Sep-29 13:33N 39°33' E 002°38'0 0.0
2016-Sep-29 08:33N 39°33' E 002°38'0 0.0
2016-Sep-29 07:33N 39°33' E 002°38'0 0.0
2016-Sep-29 00:33N 39°33' E 002°38'0 0.0
2016-Sep-28 21:33N 39°33' E 002°38'0 0.0
2016-Sep-28 19:33N 39°33' E 002°38'0 0.0
2016-Sep-28 16:33N 39°33' E 002°38'0 0.0
2016-Sep-28 15:33N 39°33' E 002°38'4 1.2
2016-Sep-28 12:33N 39°32' E 002°33'0 0.0
2016-Sep-28 08:33N 39°32' E 002°34'4 0.7
2016-Sep-28 03:33N 39°33' E 002°38'0 0.0
2016-Sep-28 02:33N 39°33' E 002°38'0 0.0
2016-Sep-28 01:33N 39°33' E 002°38'0 0.0
2016-Sep-27 23:33N 39°33' E 002°38'0 0.0
2016-Sep-27 19:33N 39°33' E 002°38'9 1.9
2016-Sep-27 14:33N 39°28' E 002°28'23 1.6
2016-Sep-27 00:33N 39°48' E 002°42'0 0.0
2016-Sep-26 20:33N 39°48' E 002°42'0 0.0
2016-Sep-26 19:33N 39°48' E 002°42'16 4.1
2016-Sep-26 15:33N 39°38' E 002°24'6 1.5
2016-Sep-26 11:33N 39°32' E 002°24'59 2.4
2016-Sep-25 10:29N 38°53' E 001°27'1 0.0
2016-Sep-24 10:04N 38°54' E 001°27'612.7
2016-Sep-24 09:33N 38°57' E 001°34'6110.2
2016-Sep-24 03:33N 39°34' E 002°38'0 0.0
2016-Sep-24 02:33N 39°34' E 002°38'0 0.0
2016-Sep-24 01:33N 39°34' E 002°38'0 0.0
2016-Sep-24 00:33N 39°34' E 002°38'0 0.0
2016-Sep-23 19:33N 39°34' E 002°38'0 0.0
2016-Sep-23 17:33N 39°34' E 002°38'0 0.0
2016-Sep-23 16:33N 39°34' E 002°38'0 0.0
2016-Sep-23 15:33N 39°34' E 002°38'0 0.0
2016-Sep-23 13:33N 39°34' E 002°38'0 0.0
2016-Sep-23 09:33N 39°34' E 002°38'0 0.0
2016-Sep-23 06:33N 39°34' E 002°38'0 0.0
2016-Sep-23 04:33N 39°34' E 002°38'0 0.0
2016-Sep-23 03:33N 39°34' E 002°38'0 0.0
2016-Sep-23 02:33N 39°34' E 002°38'0 0.0
2016-Sep-23 01:33N 39°34' E 002°38'0 0.0
2016-Sep-23 00:33N 39°34' E 002°38'0 0.0
2016-Sep-22 23:33N 39°34' E 002°38'0 0.0
2016-Sep-22 20:33N 39°34' E 002°38'0 0.0
2016-Sep-22 12:33N 39°34' E 002°38'0 0.0
2016-Sep-22 04:33N 39°34' E 002°38'0 0.0
2016-Sep-22 03:33N 39°34' E 002°38'0 0.0
2016-Sep-22 00:33N 39°34' E 002°38'0 0.0
2016-Sep-21 23:33N 39°34' E 002°38'0 0.0
2016-Sep-21 22:33N 39°34' E 002°38'0 0.0
2016-Sep-21 19:33N 39°34' E 002°38'0 0.0
2016-Sep-21 16:33N 39°34' E 002°38'0 0.0
2016-Sep-21 09:33N 39°34' E 002°38'0 0.0
2016-Sep-21 08:33N 39°34' E 002°38'  

Dump ship's entire track history